Time;durP1;ratioP1;P1;durP2;ratioP2;P2;SDS_P1;SDS_P2;PMS_P1;PMS_P2;Temp;Humidity;BMP_temperature;BMP_pressure;BME280_temperature;BME280_humidity;BME280_pressure;Samples;Min_cycle;Max_cycle;Signal;HPM_P1;HPM_P2
2022/11/25 00:02:44;;;;;;;;;;;;;;;18.08;45.12;96961.13;6153135;23;19983;-32
2022/11/25 00:05:09;;;;;;;;;;;;;;;18.10;45.39;96966.94;6154290;23;19984;-33
2022/11/25 00:16:43;;;;;;;;;;;;;;;18.07;44.99;96963.13;6152194;23;19919;-32
2022/11/25 00:31:31;;;;;;;;;;;;;;;17.93;45.30;96950.81;6158427;23;20247;-32
2022/11/25 00:46:29;;;;;;;;;;;;;;;18.03;45.13;96976.25;6158164;23;19915;-33
2022/11/25 01:01:30;;;;;;;;;;;;;;;17.95;45.18;96983.28;6157865;23;19987;-32
2022/11/25 01:16:31;;;;;;;;;;;;;;;17.92;45.23;96997.94;6158003;23;19963;-32
2022/11/25 01:31:32;;;;;;;;;;;;;;;17.88;45.11;97009.06;6157774;23;19916;-34
2022/11/25 01:33:59;;;;;;;;;;;;;;;17.90;45.35;97005.88;6157337;23;19921;-34
2022/11/25 01:48:39;;;;;;;;;;;;;;;17.87;45.52;96995.81;6157617;23;19916;-33
2022/11/25 02:03:23;;;;;;;;;;;;;;;17.81;46.12;96989.41;6157578;23;19955;-33
2022/11/25 02:33:14;;;;;;;;;;;;;;;17.80;45.91;96991.38;6157346;23;19943;-32
2022/11/25 03:03:05;;;;;;;;;;;;;;;17.68;46.15;96997.06;6156687;23;19987;-32
2022/11/25 03:48:10;;;;;;;;;;;;;;;17.63;46.21;96982.00;6156668;23;19916;-32
2022/11/25 04:02:46;;;;;;;;;;;;;;;17.59;46.36;97017.75;6156686;23;19991;-33
2022/11/25 04:17:23;;;;;;;;;;;;;;;17.56;46.47;97029.63;6155692;23;19923;-32
2022/11/25 04:31:59;;;;;;;;;;;;;;;17.56;46.46;97037.09;6156362;23;19919;-33
2022/11/25 04:46:45;;;;;;;;;;;;;;;17.60;46.42;97048.69;6156624;23;19963;-32
2022/11/25 05:01:47;;;;;;;;;;;;;;;17.62;46.14;97068.19;6156127;23;19915;-32
2022/11/25 05:16:49;;;;;;;;;;;;;;;17.60;46.10;97067.91;6156906;23;19964;-32
2022/11/25 05:31:47;;;;;;;;;;;;;;;17.48;46.39;97072.31;6157531;23;19932;-33
2022/11/25 05:46:45;;;;;;;;;;;;;;;17.57;46.36;97094.25;6157731;23;19971;-34
2022/11/25 06:01:46;;;;;;;;;;;;;;;17.49;46.65;97098.53;6157298;23;19927;-32
2022/11/25 06:16:48;;;;;;;;;;;;;;;17.50;46.63;97102.78;6157467;23;19964;-33
2022/11/25 06:31:49;;;;;;;;;;;;;;;17.42;46.84;97096.09;6127887;23;19987;-34
2022/11/25 06:46:49;;;;;;;;;;;;;;;17.23;47.74;97100.00;6127788;23;19915;-33
2022/11/25 07:01:50;;;;;;;;;;;;;;;17.46;46.83;97091.19;6127009;23;19968;-33
2022/11/25 07:16:51;;;;;;;;;;;;;;;17.46;46.88;97104.91;6104247;23;19971;-34
2022/11/25 07:31:55;;;;;;;;;;;;;;;17.37;47.13;97112.38;6131795;23;19947;-33
2022/11/25 07:46:53;;;;;;;;;;;;;;;17.37;47.07;97121.34;6153840;23;19915;-33
2022/11/25 08:02:02;;;;;;;;;;;;;;;17.33;47.31;97115.25;6152964;23;20310;-33
2022/11/25 08:17:05;;;;;;;;;;;;;;;17.36;46.65;97099.88;6152848;23;19943;-34
2022/11/25 08:32:09;;;;;;;;;;;;;;;17.36;46.09;97083.41;6153296;23;19923;-34
2022/11/25 08:46:56;;;;;;;;;;;;;;;17.35;45.28;97092.84;6153329;23;19931;-34
2022/11/25 09:01:58;;;;;;;;;;;;;;;17.28;43.24;97104.88;6154772;23;19988;-34
2022/11/25 09:16:57;;;;;;;;;;;;;;;17.33;43.49;97123.47;6154664;23;19924;-35
2022/11/25 09:31:59;;;;;;;;;;;;;;;17.35;43.83;97120.28;6157716;23;19963;-35
2022/11/25 09:46:59;;;;;;;;;;;;;;;17.27;43.86;97121.78;6157741;23;19915;-34
2022/11/25 10:02:00;;;;;;;;;;;;;;;17.41;43.64;97130.19;6157123;23;19963;-34
2022/11/25 10:17:01;;;;;;;;;;;;;;;17.40;43.63;97105.97;6157426;23;20347;-35
2022/11/25 10:32:01;;;;;;;;;;;;;;;17.38;44.00;97109.16;6157300;23;19959;-36
2022/11/25 10:47:02;;;;;;;;;;;;;;;17.37;44.53;97093.94;6156976;23;20246;-38
2022/11/25 11:02:03;;;;;;;;;;;;;;;17.31;44.97;97064.84;6157084;23;20398;-34
2022/11/25 11:17:04;;;;;;;;;;;;;;;17.37;45.31;97058.28;6154550;23;19967;-34
2022/11/25 11:32:06;;;;;;;;;;;;;;;17.40;45.45;97042.91;6153646;23;19954;-34
2022/11/25 11:34:41;;;;;;;;;;;;;;;17.29;45.65;97045.34;6153825;23;19912;-34
2022/11/25 11:37:21;;;;;;;;;;;;;;;17.36;45.69;97056.75;6154167;23;19987;-35
2022/11/25 11:39:46;;;;;;;;;;;;;;;17.25;45.86;97050.97;6154646;23;19913;-34
2022/11/25 11:48:27;;;;;;;;;;;;;;;17.33;45.77;97038.47;6093904;23;19916;-34
2022/11/25 12:03:16;;;;;;;;;;;;;;;17.40;45.58;97024.47;6095002;23;20376;-35
2022/11/25 12:17:54;;;;;;;;;;;;;;;17.33;46.25;97008.31;6155752;23;19924;-34
2022/11/25 12:32:36;;;;;;;;;;;;;;;17.40;46.16;96997.06;6158245;23;19936;-36
2022/11/25 12:35:02;;;;;;;;;;;;;;;17.39;46.36;97000.25;6158711;23;19920;-34
2022/11/25 12:47:10;;;;;;;;;;;;;;;17.30;46.61;96997.53;6158065;23;20280;-35
2022/11/25 13:02:09;;;;;;;;;;;;;;;17.39;46.68;96978.31;6158148;23;19915;-37
2022/11/25 13:17:10;;;;;;;;;;;;;;;17.38;46.98;96960.34;6157773;23;20323;-35
2022/11/25 13:32:11;;;;;;;;;;;;;;;17.41;46.97;96957.47;6125330;23;19916;-35
2022/11/25 13:47:12;;;;;;;;;;;;;;;17.44;47.17;96959.25;6125267;23;20058;-34
2022/11/25 14:02:13;;;;;;;;;;;;;;;17.43;47.13;96963.22;6124544;23;19963;-36
2022/11/25 14:17:13;;;;;;;;;;;;;;;17.44;47.27;96953.03;6125527;23;19919;-35
2022/11/25 14:32:15;;;;;;;;;;;;;;;17.40;46.79;96941.47;6124912;23;19920;-34
2022/11/25 14:47:16;;;;;;;;;;;;;;;17.44;47.26;96936.56;6124822;23;19920;-34
2022/11/25 15:02:15;;;;;;;;;;;;;;;17.46;47.25;96945.09;6126138;23;19995;-34
2022/11/25 15:17:17;;;;;;;;;;;;;;;17.40;47.50;96925.78;6127504;23;20284;-34
2022/11/25 15:32:17;;;;;;;;;;;;;;;17.39;47.63;96915.25;6127273;23;19964;-36
2022/11/25 15:47:18;;;;;;;;;;;;;;;17.42;47.76;96914.34;6126851;23;19916;-34
2022/11/25 15:49:50;;;;;;;;;;;;;;;17.40;47.94;96920.28;6127231;23;19909;-34
2022/11/25 16:04:26;;;;;;;;;;;;;;;17.40;48.15;96897.59;6127098;23;19916;-34
2022/11/25 16:19:15;;;;;;;;;;;;;;;17.34;48.41;96882.97;6147917;23;19991;-33
2022/11/25 16:33:54;;;;;;;;;;;;;;;17.39;48.31;96874.91;6156377;23;19932;-34
2022/11/25 16:48:30;;;;;;;;;;;;;;;17.43;48.30;96853.56;6156524;23;19916;-33
2022/11/25 17:03:10;;;;;;;;;;;;;;;17.38;48.54;96867.91;6156385;23;19984;-34
2022/11/25 17:17:47;;;;;;;;;;;;;;;17.38;48.80;96859.66;6157700;23;20354;-34
2022/11/25 17:32:24;;;;;;;;;;;;;;;17.42;48.74;96868.50;6157858;23;19947;-33
2022/11/25 17:47:25;;;;;;;;;;;;;;;17.40;48.85;96892.13;6157782;23;19916;-34
2022/11/25 18:02:27;;;;;;;;;;;;;;;17.38;48.90;96873.38;6157585;23;19939;-34
2022/11/25 18:17:26;;;;;;;;;;;;;;;17.45;48.78;96899.72;6157398;23;19987;-35
2022/11/25 18:32:26;;;;;;;;;;;;;;;16.02;58.65;96924.03;6157372;23;19915;-32
2022/11/25 18:47:28;;;;;;;;;;;;;;;17.34;62.88;96927.59;6154034;23;19988;-34
2022/11/25 19:02:48;;;;;;;;;;;;;;;17.43;63.84;96938.53;6153521;23;19989;-33
2022/11/25 19:17:55;;;;;;;;;;;;;;;17.54;63.72;96914.19;6153073;23;20260;-32
2022/11/25 19:32:32;;;;;;;;;;;;;;;17.63;62.77;96904.41;6153752;23;19920;-33
2022/11/25 19:47:31;;;;;;;;;;;;;;;17.67;62.18;96916.78;6154149;23;19915;-33
2022/11/25 20:02:32;;;;;;;;;;;;;;;17.68;61.62;96895.59;6152879;23;20366;-32
2022/11/25 20:17:33;;;;;;;;;;;;;;;17.77;61.01;96888.09;6153383;23;19920;-32
2022/11/25 20:32:33;;;;;;;;;;;;;;;17.72;60.28;96868.72;6123748;23;19978;-32
2022/11/25 20:47:34;;;;;;;;;;;;;;;17.76;59.70;96841.91;6125068;23;19925;-32
2022/11/25 21:02:36;;;;;;;;;;;;;;;17.69;59.49;96806.56;6125455;23;19958;-32
2022/11/25 21:17:37;;;;;;;;;;;;;;;17.72;58.76;96789.94;6125332;23;19941;-32
2022/11/25 21:32:36;;;;;;;;;;;;;;;17.80;58.69;96804.09;6125408;23;20313;-33
2022/11/25 21:47:37;;;;;;;;;;;;;;;17.78;58.70;96803.81;6125172;23;19920;-32
2022/11/25 22:02:38;;;;;;;;;;;;;;;17.78;58.51;96799.06;6125397;23;19972;-33
2022/11/25 22:17:40;;;;;;;;;;;;;;;17.74;58.44;96789.47;6124839;23;19972;-32
2022/11/25 22:32:40;;;;;;;;;;;;;;;17.68;58.10;96794.84;6124755;23;19916;-33
2022/11/25 22:47:41;;;;;;;;;;;;;;;17.69;57.76;96795.59;6124546;23;19920;-32
2022/11/25 23:02:42;;;;;;;;;;;;;;;17.70;57.61;96780.66;6124277;23;19967;-34
2022/11/25 23:17:44;;;;;;;;;;;;;;;17.64;57.70;96786.03;6124514;23;20292;-32
2022/11/25 23:32:43;;;;;;;;;;;;;;;17.66;57.74;96761.66;6153427;23;19919;-32
2022/11/25 23:47:44;;;;;;;;;;;;;;;17.69;57.09;96757.94;6153588;23;20398;-32
2022/11/25 23:50:15;;;;;;;;;;;;;;;17.62;57.18;96754.78;6153597;23;20290;-32
